Terminal Aerodrome Forecast
Issued by NWS Shreveport, LA

Home | Current Version | Previous Version | Text Only | Print | Product List | Glossary On
Versions: 1 2 3 4 5 6 7 8 9 10 11 12 13 14 15 16 17
000
FTUS44 KSHV 250531
TAFLFK
TAF
KLFK 250531Z 2506/2606 19004KT P6SM -RA BKN130 OVC250
     FM250700 VRB03KT P6SM BKN130 OVC250
     FM251300 VRB06KT 4SM BR BKN045 BKN250
     FM251600 31003KT P6SM VCTS BKN045CB BKN130 OVC250
     FM252000 06005KT P6SM -TSRA BKN050CB BKN130
     FM252200 11006KT P6SM OVC100
     FM260100 14004KT P6SM OVC100=

USA.gov is the U.S. government's official web portal to all federal, state and local government web resources and services.